KLM163 EHAM-LIRF
Flight info
| Callsign | KLM163 |
|---|---|
| Flight time | N/A |
| Altitude | 35000 |
| Route | EDUPO Z739 MISGO DCT ASBON DCT TUSUK DCT ULNOK L607 ABUKA DCT TEDGO DCT BATUB DCT TIRUL M738 NATAG DCT LORLO DCT GAVRA DCT RITEB |
| Aircraft | B738/M-SDE2E3FGHIRWXY/LB1 |
Departure
| Time | 2026-04-30 10:23 |
|---|---|
| Airport | Amsterdam Airport Schiphol (EHAM) |
Arrival
| Time | N/A |
|---|---|
| Airport | Rome–Fiumicino Leonardo da Vinci International Airport (LIRF) |
| Time | Latitude | Longitude | Altitude | Speed | Heading |
|---|---|---|---|---|---|
| 2026-04-30 10:06 | 52.30999 | 4.77362 | -2 ft | 0 kts | 182° |
| 2026-04-30 10:15 | 52.31016 | 4.77363 | -2 ft | 4 kts | 181° |
| 2026-04-30 10:15 | 52.31043 | 4.77362 | -2 ft | 4 kts | 172° |
| 2026-04-30 10:15 | 52.31067 | 4.77350 | -2 ft | 4 kts | 136° |
| 2026-04-30 10:15 | 52.31074 | 4.77335 | -2 ft | 0 kts | 104° |
| 2026-04-30 10:18 | 52.31074 | 4.77336 | -2 ft | 1 kts | 104° |
| 2026-04-30 10:18 | 52.31072 | 4.77359 | -2 ft | 3 kts | 95° |
| 2026-04-30 10:19 | 52.31053 | 4.77479 | -2 ft | 5 kts | 126° |
| 2026-04-30 10:19 | 52.31035 | 4.77537 | -2 ft | 6 kts | 99° |
| 2026-04-30 10:19 | 52.31051 | 4.77599 | -2 ft | 7 kts | 43° |
| 2026-04-30 10:19 | 52.31107 | 4.77627 | -2 ft | 10 kts | 6° |
| 2026-04-30 10:20 | 52.31193 | 4.77638 | -2 ft | 15 kts | 4° |
| 2026-04-30 10:20 | 52.31418 | 4.77649 | -1 ft | 14 kts | 347° |
| 2026-04-30 10:20 | 52.31491 | 4.77585 | -2 ft | 12 kts | 325° |
| 2026-04-30 10:21 | 52.31555 | 4.77567 | -2 ft | 7 kts | 25° |
| 2026-04-30 10:21 | 52.31587 | 4.77645 | -2 ft | 10 kts | 77° |
| 2026-04-30 10:21 | 52.31593 | 4.77777 | -1 ft | 13 kts | 86° |
| 2026-04-30 10:21 | 52.31597 | 4.77902 | 1 ft | 10 kts | 92° |
| 2026-04-30 10:22 | 52.31569 | 4.77958 | 0 ft | 4 kts | 161° |
| 2026-04-30 10:22 | 52.31534 | 4.77960 | 1 ft | 6 kts | 183° |
| 2026-04-30 10:22 | 52.31342 | 4.77944 | -1 ft | 53 kts | 182° |
| 2026-04-30 10:22 | 52.30806 | 4.77892 | -4 ft | 100 kts | 184° |
| 2026-04-30 10:23 | 52.29969 | 4.77814 | -4 ft | 140 kts | 183° |
| 2026-04-30 10:23 | 52.28893 | 4.77709 | 218 ft | 162 kts | 181° |
| 2026-04-30 10:23 | 52.27749 | 4.77550 | 686 ft | 171 kts | 180° |
| 2026-04-30 10:23 | 52.26524 | 4.77543 | 1155 ft | 177 kts | 166° |
| 2026-04-30 10:24 | 52.25428 | 4.78285 | 1790 ft | 169 kts | 135° |
| 2026-04-30 10:24 | 52.24746 | 4.79827 | 2314 ft | 168 kts | 110° |
| 2026-04-30 10:24 | 52.24558 | 4.81766 | 2802 ft | 180 kts | 87° |
| 2026-04-30 10:24 | 52.24904 | 4.83817 | 3315 ft | 194 kts | 74° |
| 2026-04-30 10:25 | 52.25201 | 4.86003 | 3844 ft | 206 kts | 90° |
| 2026-04-30 10:25 | 52.25073 | 4.88421 | 4298 ft | 222 kts | 99° |
| 2026-04-30 10:25 | 52.24922 | 4.90948 | 5006 ft | 229 kts | 96° |
| 2026-04-30 10:25 | 52.24871 | 4.93594 | 5642 ft | 232 kts | 91° |
| 2026-04-30 10:26 | 52.24890 | 4.96017 | 7152 ft | 199 kts | 93° |
| 2026-04-30 10:26 | 52.24857 | 4.98346 | 7628 ft | 218 kts | 93° |
| 2026-04-30 10:26 | 52.24818 | 5.00959 | 7928 ft | 239 kts | 94° |
| 2026-04-30 10:26 | 52.24700 | 5.03783 | 8172 ft | 261 kts | 96° |
| 2026-04-30 10:27 | 52.24606 | 5.06827 | 8638 ft | 274 kts | 92° |
| 2026-04-30 10:27 | 52.24595 | 5.09923 | 9474 ft | 270 kts | 91° |
| 2026-04-30 10:27 | 52.24565 | 5.12922 | 10524 ft | 258 kts | 92° |
| 2026-04-30 10:27 | 52.24514 | 5.15801 | 11407 ft | 252 kts | 92° |
| 2026-04-30 10:28 | 52.24473 | 5.18684 | 11954 ft | 259 kts | 91° |
| 2026-04-30 10:28 | 52.24450 | 5.21668 | 12236 ft | 274 kts | 90° |
| 2026-04-30 10:28 | 52.24319 | 5.24871 | 12441 ft | 293 kts | 100° |
| 2026-04-30 10:28 | 52.23640 | 5.28122 | 12628 ft | 313 kts | 115° |
| 2026-04-30 10:29 | 52.22432 | 5.31206 | 12830 ft | 332 kts | 125° |
| 2026-04-30 10:29 | 52.20975 | 5.34220 | 13125 ft | 344 kts | 125° |
| 2026-04-30 10:29 | 52.19524 | 5.37343 | 13672 ft | 346 kts | 123° |
| 2026-04-30 10:29 | 52.18114 | 5.40526 | 14251 ft | 348 kts | 123° |
| 2026-04-30 10:30 | 52.16688 | 5.43747 | 14746 ft | 352 kts | 123° |
| 2026-04-30 10:30 | 52.15242 | 5.46978 | 15264 ft | 355 kts | 123° |
| 2026-04-30 10:30 | 52.13776 | 5.50247 | 15757 ft | 358 kts | 123° |
| 2026-04-30 10:30 | 52.12324 | 5.53492 | 16225 ft | 361 kts | 123° |
| 2026-04-30 10:31 | 52.10847 | 5.56816 | 16691 ft | 364 kts | 123° |
| 2026-04-30 10:31 | 52.09366 | 5.60172 | 17152 ft | 366 kts | 123° |
| 2026-04-30 10:31 | 52.07940 | 5.63415 | 17578 ft | 369 kts | 123° |
| 2026-04-30 10:31 | 52.06449 | 5.66834 | 17997 ft | 371 kts | 122° |
| 2026-04-30 10:32 | 52.04901 | 5.70224 | 18394 ft | 376 kts | 126° |
| 2026-04-30 10:32 | 52.03199 | 5.73484 | 18791 ft | 380 kts | 129° |
| 2026-04-30 10:32 | 52.01398 | 5.76652 | 19186 ft | 383 kts | 130° |
| 2026-04-30 10:32 | 51.99583 | 5.79835 | 19570 ft | 385 kts | 129° |
| 2026-04-30 10:33 | 51.97793 | 5.83081 | 19945 ft | 387 kts | 128° |
| 2026-04-30 10:33 | 51.96022 | 5.86391 | 20296 ft | 389 kts | 128° |
| 2026-04-30 10:33 | 51.94239 | 5.89722 | 20628 ft | 393 kts | 128° |
| 2026-04-30 10:33 | 51.92459 | 5.93030 | 20985 ft | 394 kts | 128° |
| 2026-04-30 10:34 | 51.90651 | 5.96390 | 21315 ft | 396 kts | 128° |
| 2026-04-30 10:34 | 51.88832 | 5.99771 | 21621 ft | 399 kts | 128° |
| 2026-04-30 10:34 | 51.87010 | 6.03172 | 21928 ft | 401 kts | 128° |
| 2026-04-30 10:34 | 51.85182 | 6.06614 | 22233 ft | 403 kts | 128° |
| 2026-04-30 10:35 | 51.83332 | 6.10048 | 22530 ft | 406 kts | 129° |
| 2026-04-30 10:35 | 51.81453 | 6.13469 | 22819 ft | 408 kts | 129° |
| 2026-04-30 10:35 | 51.79560 | 6.16904 | 23115 ft | 410 kts | 129° |
| 2026-04-30 10:35 | 51.77697 | 6.20316 | 23399 ft | 411 kts | 129° |
| 2026-04-30 10:36 | 51.75812 | 6.23803 | 23641 ft | 414 kts | 129° |
| 2026-04-30 10:36 | 51.73901 | 6.27296 | 23885 ft | 416 kts | 129° |
| 2026-04-30 10:36 | 51.71969 | 6.30789 | 24148 ft | 418 kts | 129° |
| 2026-04-30 10:36 | 51.70026 | 6.34297 | 24406 ft | 420 kts | 129° |
| 2026-04-30 10:37 | 51.68080 | 6.37817 | 24677 ft | 420 kts | 129° |
| 2026-04-30 10:37 | 51.62420 | 6.48145 | 25383 ft | 425 kts | 129° |
| 2026-04-30 10:38 | 51.60446 | 6.51701 | 25623 ft | 426 kts | 129° |
| 2026-04-30 10:38 | 51.58465 | 6.55248 | 25866 ft | 427 kts | 129° |
| 2026-04-30 10:38 | 51.56476 | 6.58803 | 26079 ft | 428 kts | 129° |
| 2026-04-30 10:39 | 51.48332 | 6.73362 | 26915 ft | 433 kts | 128° |